createdAt,value
2022-08-30T00:02:03.562Z,100.00
2022-08-30T00:04:31.883Z,100.00
2022-08-30T00:07:02.427Z,100.00
2022-08-30T00:09:32.825Z,100.00
2022-08-30T00:12:01.322Z,100.00
2022-08-30T00:14:29.908Z,100.00
2022-08-30T00:16:57.990Z,100.00
2022-08-30T00:19:26.569Z,100.00
2022-08-30T00:21:54.638Z,100.00
2022-08-30T00:24:23.288Z,100.00
2022-08-30T00:26:53.499Z,100.00
2022-08-30T00:29:21.800Z,100.00
2022-08-30T00:31:50.055Z,100.00
2022-08-30T00:34:18.160Z,100.00
2022-08-30T00:36:46.544Z,100.00
2022-08-30T00:39:14.665Z,100.00
2022-08-30T00:41:42.742Z,100.00
2022-08-30T00:44:12.376Z,100.00
2022-08-30T00:46:40.464Z,100.00
2022-08-30T00:49:12.172Z,100.00
2022-08-30T00:51:41.789Z,100.00
2022-08-30T00:54:10.341Z,100.00
2022-08-30T00:56:38.487Z,100.00
2022-08-30T00:59:09.142Z,100.00
2022-08-30T01:01:39.218Z,100.00
2022-08-30T01:04:09.924Z,100.00
2022-08-30T01:06:40.184Z,100.00
2022-08-30T01:09:10.249Z,100.00
2022-08-30T01:11:40.295Z,100.00
2022-08-30T01:14:09.347Z,100.00
2022-08-30T01:16:41.441Z,100.00
2022-08-30T01:19:19.817Z,100.00
2022-08-30T01:21:50.936Z,100.00
2022-08-30T01:24:20.705Z,100.00
2022-08-30T01:26:48.870Z,100.00
2022-08-30T01:29:22.489Z,100.00
2022-08-30T01:31:50.859Z,100.00
2022-08-30T01:34:19.740Z,100.00
2022-08-30T01:36:50.497Z,100.00
2022-08-30T01:39:21.068Z,100.00
2022-08-30T01:41:49.326Z,100.00
2022-08-30T01:44:18.097Z,100.00
2022-08-30T01:46:48.544Z,100.00
2022-08-30T01:49:26.021Z,100.00
2022-08-30T01:52:01.148Z,100.00
2022-08-30T01:54:37.013Z,100.00
2022-08-30T01:57:08.480Z,100.00
2022-08-30T01:59:37.265Z,100.00
2022-08-30T02:02:06.868Z,100.00
2022-08-30T02:04:36.849Z,100.00
2022-08-30T02:07:05.126Z,100.00
2022-08-30T02:09:34.721Z,100.00
2022-08-30T02:12:03.001Z,100.00
2022-08-30T02:14:31.124Z,100.00
2022-08-30T02:16:59.356Z,100.00
2022-08-30T02:19:27.939Z,100.00
2022-08-30T02:21:56.026Z,100.00
2022-08-30T02:24:24.198Z,100.00
2022-08-30T02:26:54.492Z,100.00
2022-08-30T02:29:23.557Z,100.00
2022-08-30T02:31:52.013Z,100.00
2022-08-30T02:34:20.425Z,100.00
2022-08-30T02:36:48.985Z,100.00
2022-08-30T02:39:17.200Z,100.00
2022-08-30T02:41:45.419Z,100.00
2022-08-30T02:44:15.159Z,100.00
2022-08-30T02:46:43.430Z,100.00
2022-08-30T02:51:59.721Z,100.00
2022-08-30T02:54:28.547Z,100.00
2022-08-30T02:56:57.427Z,100.00
2022-08-30T02:59:27.010Z,100.00
2022-08-30T03:01:57.219Z,100.00
2022-08-30T03:04:26.596Z,100.00
2022-08-30T03:06:55.354Z,100.00
2022-08-30T03:09:23.930Z,100.00
2022-08-30T03:11:52.082Z,100.00
2022-08-30T03:14:20.297Z,100.00
2022-08-30T03:16:49.997Z,100.00
2022-08-30T03:19:18.276Z,100.00
2022-08-30T03:21:46.399Z,100.00
2022-08-30T03:24:14.764Z,100.00
2022-08-30T03:26:46.285Z,100.00
2022-08-30T03:29:15.515Z,100.00
2022-08-30T03:31:52.409Z,100.00
2022-08-30T03:34:23.678Z,100.00
2022-08-30T03:36:53.665Z,100.00
2022-08-30T03:39:23.565Z,100.00
2022-08-30T03:41:51.875Z,100.00
2022-08-30T03:44:20.553Z,100.00
2022-08-30T03:46:50.569Z,100.00
2022-08-30T03:49:19.883Z,100.00
2022-08-30T03:51:49.787Z,100.00
2022-08-30T03:54:18.453Z,100.00
2022-08-30T03:56:46.646Z,100.00
2022-08-30T03:59:15.067Z,100.00
2022-08-30T04:01:45.958Z,100.00
2022-08-30T04:04:17.499Z,100.00
2022-08-30T04:06:50.892Z,100.00
2022-08-30T04:09:19.451Z,100.00
2022-08-30T04:11:47.585Z,100.00
2022-08-30T04:14:16.320Z,100.00
2022-08-30T04:16:44.461Z,100.00
2022-08-30T04:19:12.864Z,100.00
2022-08-30T04:21:43.173Z,100.00
2022-08-30T04:24:13.399Z,100.00
2022-08-30T04:26:41.453Z,100.00
2022-08-30T04:29:11.718Z,100.00
2022-08-30T04:31:39.784Z,100.00
2022-08-30T04:34:07.933Z,100.00
2022-08-30T04:36:35.929Z,100.00
2022-08-30T04:39:04.114Z,100.00
2022-08-30T04:41:34.236Z,100.00
2022-08-30T04:44:03.597Z,100.00
2022-08-30T04:46:32.261Z,100.00
2022-08-30T04:49:00.997Z,100.00
2022-08-30T04:51:29.756Z,100.00
2022-08-30T04:53:58.133Z,100.00
2022-08-30T04:56:27.026Z,100.00
2022-08-30T04:58:57.148Z,100.00
2022-08-30T05:01:28.861Z,100.00
2022-08-30T05:03:57.974Z,100.00
2022-08-30T05:06:29.290Z,100.00
2022-08-30T05:08:57.320Z,100.00
2022-08-30T05:11:25.346Z,100.00
2022-08-30T05:13:53.491Z,100.00
2022-08-30T05:16:22.996Z,100.00
2022-08-30T05:18:53.754Z,100.00
2022-08-30T05:21:23.471Z,100.00
2022-08-30T05:23:51.683Z,100.00
2022-08-30T05:26:22.125Z,100.00
2022-08-30T05:28:53.792Z,100.00
2022-08-30T05:31:26.614Z,100.00
2022-08-30T05:33:55.966Z,100.00
2022-08-30T05:36:26.054Z,100.00
2022-08-30T05:38:54.907Z,100.00
2022-08-30T05:41:26.434Z,100.00
2022-08-30T05:43:56.577Z,100.00
2022-08-30T05:46:29.510Z,100.00
2022-08-30T05:48:58.437Z,100.00
2022-08-30T05:51:29.128Z,100.00
2022-08-30T05:53:59.074Z,100.00
2022-08-30T05:56:29.418Z,100.00
2022-08-30T05:58:58.387Z,100.00
2022-08-30T06:01:31.972Z,100.00
2022-08-30T06:04:03.847Z,100.00
2022-08-30T06:06:34.318Z,100.00
2022-08-30T06:09:05.117Z,100.00
2022-08-30T06:11:34.842Z,100.00
2022-08-30T06:14:04.310Z,100.00
2022-08-30T06:16:34.008Z,100.00
2022-08-30T06:19:02.572Z,100.00
2022-08-30T06:21:34.403Z,100.00
2022-08-30T06:24:04.700Z,100.00
2022-08-30T06:29:05.833Z,100.00
2022-08-30T06:31:36.324Z,100.00
2022-08-30T06:34:04.562Z,100.00
2022-08-30T06:36:33.480Z,100.00
2022-08-30T06:39:01.605Z,100.00
2022-08-30T06:41:31.790Z,100.00
2022-08-30T06:44:02.416Z,100.00
2022-08-30T06:46:33.423Z,100.00
2022-08-30T06:49:04.231Z,100.00
2022-08-30T06:51:34.815Z,100.00
2022-08-30T06:54:04.571Z,100.00
2022-08-30T06:56:32.892Z,100.00
2022-08-30T06:59:01.059Z,100.00
2022-08-30T07:01:30.872Z,100.00
2022-08-30T07:04:01.069Z,100.00
2022-08-30T07:06:31.158Z,100.00
2022-08-30T07:08:59.172Z,100.00
2022-08-30T07:11:30.573Z,100.00
2022-08-30T07:13:58.781Z,100.00
2022-08-30T07:16:27.517Z,100.00
2022-08-30T07:18:55.298Z,100.00
2022-08-30T07:21:27.028Z,100.00
2022-08-30T07:23:59.184Z,100.00
2022-08-30T07:26:29.685Z,100.00
2022-08-30T07:28:58.273Z,100.00
2022-08-30T07:31:27.010Z,100.00
2022-08-30T07:33:55.316Z,100.00
2022-08-30T07:36:24.417Z,100.00
2022-08-30T07:38:54.579Z,100.00
2022-08-30T07:41:26.420Z,100.00
2022-08-30T07:43:55.130Z,100.00
2022-08-30T07:46:24.205Z,100.00
2022-08-30T07:48:54.254Z,100.00
2022-08-30T07:51:24.874Z,100.00
2022-08-30T07:53:53.539Z,100.00
2022-08-30T07:56:23.784Z,100.00
2022-08-30T07:58:52.035Z,100.00
2022-08-30T08:01:21.222Z,100.00
2022-08-30T08:03:50.377Z,100.00
2022-08-30T08:06:20.733Z,100.00
2022-08-30T08:08:48.910Z,100.00
2022-08-30T08:11:19.467Z,100.00
2022-08-30T08:13:53.964Z,100.00
2022-08-30T08:16:24.680Z,100.00
2022-08-30T08:18:53.002Z,100.00
2022-08-30T08:21:21.902Z,100.00
2022-08-30T08:23:49.936Z,100.00
2022-08-30T08:26:18.141Z,100.00
2022-08-30T08:28:47.288Z,100.00
2022-08-30T08:31:18.110Z,100.00
2022-08-30T08:33:46.519Z,100.00
2022-08-30T08:36:14.698Z,100.00
2022-08-30T08:38:42.756Z,100.00
2022-08-30T08:41:27.583Z,100.00
2022-08-30T08:43:55.800Z,100.00
2022-08-30T08:46:31.626Z,100.00
2022-08-30T08:49:06.248Z,100.00
2022-08-30T08:51:53.601Z,100.00
2022-08-30T08:54:26.301Z,100.00
2022-08-30T08:56:55.180Z,100.00
2022-08-30T08:59:23.597Z,100.00
2022-08-30T09:01:54.274Z,100.00
2022-08-30T09:04:32.093Z,100.00
2022-08-30T09:07:04.924Z,100.00
2022-08-30T09:09:36.886Z,100.00
2022-08-30T09:12:06.596Z,98.46
2022-08-30T09:14:38.827Z,96.55
2022-08-30T09:17:10.677Z,97.48
2022-08-30T09:19:42.304Z,96.54
2022-08-30T09:22:21.736Z,96.45
2022-08-30T09:24:52.370Z,94.49
2022-08-30T09:27:25.550Z,95.84
2022-08-30T09:29:59.184Z,95.63
2022-08-30T09:32:35.594Z,96.44
2022-08-30T09:35:07.896Z,97.78
2022-08-30T09:37:39.861Z,96.70
2022-08-30T09:40:14.866Z,94.14
2022-08-30T09:42:43.998Z,91.23
2022-08-30T09:45:31.862Z,88.88
2022-08-30T09:48:01.561Z,90.18
2022-08-30T09:50:34.497Z,90.75
2022-08-30T09:53:10.555Z,87.65
2022-08-30T09:55:55.925Z,88.04
2022-08-30T09:58:42.789Z,89.34
2022-08-30T10:01:16.258Z,87.27
2022-08-30T10:03:51.394Z,89.82
2022-08-30T10:06:30.064Z,87.23
2022-08-30T10:09:08.970Z,86.59
2022-08-30T10:11:43.970Z,88.09
2022-08-30T10:14:48.864Z,88.31
2022-08-30T10:17:27.230Z,88.46
2022-08-30T10:20:11.647Z,87.55
2022-08-30T10:22:46.662Z,86.72
2022-08-30T10:25:19.403Z,86.33
2022-08-30T10:27:52.292Z,87.36
2022-08-30T10:30:20.858Z,86.29
2022-08-30T10:32:59.735Z,87.89
2022-08-30T10:35:38.617Z,87.89
2022-08-30T10:38:11.505Z,86.71
2022-08-30T10:41:00.874Z,87.33
2022-08-30T10:43:34.683Z,87.16
2022-08-30T10:46:09.410Z,85.22
2022-08-30T10:48:44.390Z,85.67
2022-08-30T10:51:19.773Z,85.65
2022-08-30T10:53:54.015Z,86.45
2022-08-30T10:56:26.252Z,86.79
2022-08-30T10:58:54.983Z,82.69
2022-08-30T11:01:37.268Z,85.45
2022-08-30T11:04:57.545Z,85.50
2022-08-30T11:07:40.799Z,85.18
2022-08-30T11:10:23.585Z,82.41
2022-08-30T11:13:00.798Z,84.28
2022-08-30T11:15:31.599Z,83.84
2022-08-30T11:18:02.985Z,82.00
2022-08-30T11:20:41.343Z,81.80
2022-08-30T11:23:32.719Z,80.93
2022-08-30T11:26:04.840Z,82.07
2022-08-30T11:29:01.985Z,80.36
2022-08-30T11:31:37.273Z,80.84
2022-08-30T11:34:07.392Z,79.60
2022-08-30T11:37:09.792Z,81.50
2022-08-30T11:40:03.858Z,80.88
2022-08-30T11:42:44.835Z,80.61
2022-08-30T11:45:45.346Z,79.87
2022-08-30T11:48:55.266Z,80.24
2022-08-30T11:52:26.395Z,80.02
2022-08-30T11:55:00.854Z,80.16
2022-08-30T11:57:37.213Z,80.66
2022-08-30T12:00:10.301Z,79.85
2022-08-30T12:02:50.446Z,79.36
2022-08-30T12:05:38.185Z,79.14
2022-08-30T12:08:07.480Z,77.91
2022-08-30T12:10:39.593Z,79.52
2022-08-30T12:13:10.110Z,78.48
2022-08-30T12:15:57.048Z,76.62
2022-08-30T12:18:45.488Z,76.60
2022-08-30T12:21:33.390Z,78.05
2022-08-30T12:24:20.037Z,77.32
2022-08-30T12:26:50.509Z,78.50
2022-08-30T12:29:22.388Z,77.53
2022-08-30T12:31:54.969Z,77.26
2022-08-30T12:34:29.631Z,77.15
2022-08-30T12:37:02.941Z,76.37
2022-08-30T12:39:34.529Z,75.22
2022-08-30T12:42:17.668Z,76.65
2022-08-30T12:44:49.706Z,75.73
2022-08-30T12:47:23.718Z,76.05
2022-08-30T12:49:52.921Z,77.39
2022-08-30T12:52:31.332Z,74.28
2022-08-30T12:55:17.576Z,73.78
2022-08-30T12:58:00.813Z,75.55
2022-08-30T13:00:32.757Z,75.02
2022-08-30T13:03:16.486Z,76.00
2022-08-30T13:05:52.828Z,76.06
2022-08-30T13:08:25.311Z,75.79
2022-08-30T13:10:59.089Z,72.85
2022-08-30T13:13:30.794Z,73.15
2022-08-30T13:16:08.743Z,69.42
2022-08-30T13:18:36.744Z,66.63
2022-08-30T13:21:23.004Z,68.36
2022-08-30T13:23:57.572Z,65.94
2022-08-30T13:26:26.056Z,66.95
2022-08-30T13:28:58.720Z,70.86
2022-08-30T13:31:30.132Z,68.90
2022-08-30T13:33:59.511Z,68.68
2022-08-30T13:36:31.643Z,68.75
2022-08-30T13:39:00.777Z,65.42
2022-08-30T13:41:34.027Z,65.17
2022-08-30T13:44:13.187Z,61.94
2022-08-30T13:46:53.286Z,60.77
2022-08-30T13:52:20.894Z,63.41
2022-08-30T13:54:50.925Z,60.27
2022-08-30T14:00:14.481Z,59.95
2022-08-30T14:02:51.483Z,64.25
2022-08-30T14:05:48.773Z,60.76
2022-08-30T14:11:00.578Z,59.72
2022-08-30T14:13:29.643Z,58.73
2022-08-30T14:18:49.050Z,60.36
2022-08-30T14:21:17.182Z,57.97
2022-08-30T14:23:49.700Z,58.28
2022-08-30T14:26:21.627Z,55.92
2022-08-30T14:28:51.544Z,52.83
2022-08-30T14:31:20.465Z,53.96
2022-08-30T14:33:50.306Z,54.51
2022-08-30T14:36:18.636Z,56.60
2022-08-30T14:38:47.065Z,53.65
2022-08-30T14:41:16.764Z,51.46
2022-08-30T14:43:45.138Z,50.10
2022-08-30T14:46:13.917Z,50.57
2022-08-30T14:48:43.111Z,44.75
2022-08-30T14:51:17.992Z,48.08
2022-08-30T14:53:47.012Z,52.67
2022-08-30T14:56:19.624Z,56.11
2022-08-30T14:58:49.772Z,50.25
2022-08-30T15:01:18.257Z,51.39
2022-08-30T15:03:46.648Z,49.85
2022-08-30T15:06:16.419Z,52.18
2022-08-30T15:08:47.661Z,54.19
2022-08-30T15:11:19.882Z,48.76
2022-08-30T15:13:48.269Z,47.60
2022-08-30T15:16:19.202Z,52.24
2022-08-30T15:18:47.920Z,53.28
2022-08-30T15:21:24.169Z,51.84
2022-08-30T15:23:52.516Z,52.16
2022-08-30T15:26:20.483Z,52.11
2022-08-30T15:28:48.876Z,51.96
2022-08-30T15:31:17.152Z,49.68
2022-08-30T15:33:45.213Z,51.99
2022-08-30T15:36:13.815Z,50.81
2022-08-30T15:38:45.662Z,50.42
2022-08-30T15:41:14.217Z,49.83
2022-08-30T15:43:42.354Z,50.92
2022-08-30T15:46:22.530Z,48.26
2022-08-30T15:48:52.947Z,49.98
2022-08-30T15:51:21.225Z,49.50
2022-08-30T15:53:50.990Z,50.89
2022-08-30T15:56:19.881Z,51.77
2022-08-30T15:58:48.462Z,50.84
2022-08-30T16:01:19.723Z,48.95
2022-08-30T16:03:50.971Z,48.54
2022-08-30T16:06:22.047Z,49.23
2022-08-30T16:08:52.365Z,49.37
2022-08-30T16:11:22.679Z,49.77
2022-08-30T16:13:51.367Z,49.45
2022-08-30T16:16:20.798Z,48.70
2022-08-30T16:18:53.918Z,46.94
2022-08-30T16:21:25.222Z,48.72
2022-08-30T16:23:56.457Z,49.33
2022-08-30T16:26:25.344Z,50.08
2022-08-30T16:28:54.259Z,49.85
2022-08-30T16:31:23.634Z,48.45
2022-08-30T16:33:53.071Z,49.18
2022-08-30T16:36:21.836Z,49.18
2022-08-30T16:38:53.459Z,49.62
2022-08-30T16:41:24.416Z,47.89
2022-08-30T16:43:53.803Z,46.18
2022-08-30T16:46:27.359Z,46.70
2022-08-30T16:48:57.974Z,47.87
2022-08-30T16:51:28.888Z,48.36
2022-08-30T16:53:58.031Z,48.88
2022-08-30T16:56:29.655Z,48.41
2022-08-30T16:59:02.621Z,48.92
2022-08-30T17:01:34.924Z,48.99
2022-08-30T17:04:03.934Z,49.05
2022-08-30T17:06:32.217Z,49.64
2022-08-30T17:09:00.379Z,48.09
2022-08-30T17:11:29.853Z,48.99
2022-08-30T17:13:58.014Z,49.28
2022-08-30T17:16:28.196Z,47.97
2022-08-30T17:19:00.616Z,48.05
2022-08-30T17:21:29.434Z,48.72
2022-08-30T17:24:02.475Z,48.41
2022-08-30T17:26:33.035Z,48.96
2022-08-30T17:29:01.574Z,48.96
2022-08-30T17:31:31.137Z,49.46
2022-08-30T17:34:03.226Z,50.25
2022-08-30T17:36:49.234Z,49.13
2022-08-30T17:39:17.506Z,50.95
2022-08-30T17:41:49.929Z,51.08
2022-08-30T17:44:19.074Z,50.74
2022-08-30T17:46:47.130Z,50.60
2022-08-30T17:49:15.290Z,51.04
2022-08-30T17:51:44.333Z,50.95
2022-08-30T17:54:14.138Z,50.55
2022-08-30T17:56:42.915Z,51.02
2022-08-30T17:59:13.501Z,53.88
2022-08-30T18:01:42.610Z,54.09
2022-08-30T18:04:12.290Z,56.50
2022-08-30T18:06:40.548Z,59.21
2022-08-30T18:09:09.415Z,57.67
2022-08-30T18:11:40.564Z,57.41
2022-08-30T18:14:10.911Z,58.75
2022-08-30T18:16:54.143Z,59.24
2022-08-30T18:19:23.275Z,58.97
2022-08-30T18:21:51.729Z,59.34
2022-08-30T18:24:19.875Z,59.63
2022-08-30T18:26:48.494Z,59.89
2022-08-30T18:29:22.470Z,60.27
2022-08-30T18:31:58.937Z,60.97
2022-08-30T18:34:26.942Z,62.27
2022-08-30T18:36:55.114Z,62.04
2022-08-30T18:39:23.127Z,62.56
2022-08-30T18:41:54.511Z,62.96
2022-08-30T18:44:28.239Z,62.90
2022-08-30T18:47:00.365Z,64.62
2022-08-30T18:49:29.001Z,64.49
2022-08-30T18:52:00.443Z,63.85
2022-08-30T18:54:29.205Z,64.43
2022-08-30T18:56:58.761Z,65.48
2022-08-30T18:59:35.722Z,67.16
2022-08-30T19:02:11.339Z,67.44
2022-08-30T19:04:42.761Z,67.31
2022-08-30T19:07:12.220Z,67.79
2022-08-30T19:09:41.112Z,68.56
2022-08-30T19:12:11.587Z,68.87
2022-08-30T19:14:40.285Z,69.69
2022-08-30T19:17:09.831Z,70.48
2022-08-30T19:19:49.289Z,71.05
2022-08-30T19:22:26.571Z,71.84
2022-08-30T19:24:56.772Z,71.89
2022-08-30T19:27:37.534Z,71.99
2022-08-30T19:30:08.355Z,72.02
2022-08-30T19:32:37.780Z,72.40
2022-08-30T19:35:06.702Z,73.50
2022-08-30T19:37:34.715Z,73.19
2022-08-30T19:40:03.310Z,75.88
2022-08-30T19:42:31.372Z,74.78
2022-08-30T19:44:59.995Z,77.06
2022-08-30T19:47:28.063Z,77.33
2022-08-30T19:49:57.589Z,77.63
2022-08-30T19:52:30.663Z,77.36
2022-08-30T19:54:59.937Z,78.64
2022-08-30T19:57:28.054Z,78.44
2022-08-30T19:59:57.803Z,78.26
2022-08-30T20:02:27.156Z,78.16
2022-08-30T20:04:58.171Z,78.86
2022-08-30T20:07:27.412Z,78.68
2022-08-30T20:09:56.405Z,79.46
2022-08-30T20:12:25.045Z,79.54
2022-08-30T20:14:53.056Z,79.16
2022-08-30T20:17:24.899Z,79.55
2022-08-30T20:19:53.010Z,79.14
2022-08-30T20:22:22.456Z,79.45
2022-08-30T20:24:50.740Z,79.42
2022-08-30T20:27:19.615Z,79.54
2022-08-30T20:29:47.705Z,78.80
2022-08-30T20:32:15.763Z,78.73
2022-08-30T20:34:44.357Z,78.67
2022-08-30T20:37:14.682Z,77.94
2022-08-30T20:39:44.461Z,78.29
2022-08-30T20:42:13.011Z,78.71
2022-08-30T20:44:41.031Z,78.65
2022-08-30T20:47:09.148Z,78.62
2022-08-30T20:49:37.231Z,78.44
2022-08-30T20:52:06.114Z,78.92
2022-08-30T20:54:38.391Z,79.37
2022-08-30T20:57:07.975Z,78.69
2022-08-30T20:59:36.592Z,78.63
2022-08-30T21:02:06.182Z,78.97
2022-08-30T21:04:34.339Z,78.91
2022-08-30T21:07:02.379Z,78.70
2022-08-30T21:09:30.385Z,78.92
2022-08-30T21:11:58.447Z,79.06
2022-08-30T21:14:27.850Z,79.39
2022-08-30T21:16:55.977Z,79.10
2022-08-30T21:19:23.891Z,79.23
2022-08-30T21:21:51.930Z,78.98
2022-08-30T21:24:20.134Z,79.59
2022-08-30T21:26:48.624Z,79.71
2022-08-30T21:29:16.627Z,79.71
2022-08-30T21:31:46.035Z,79.74
2022-08-30T21:34:17.450Z,80.34
2022-08-30T21:36:47.501Z,80.44
2022-08-30T21:39:19.152Z,79.93
2022-08-30T21:41:48.104Z,79.78
2022-08-30T21:44:19.033Z,80.41
2022-08-30T21:46:50.003Z,80.23
2022-08-30T21:49:20.534Z,80.90
2022-08-30T21:51:50.790Z,80.81
2022-08-30T21:54:18.972Z,81.39
2022-08-30T21:56:50.943Z,81.10
2022-08-30T21:59:19.589Z,80.96
2022-08-30T22:01:50.231Z,80.60
2022-08-30T22:04:20.913Z,80.55
2022-08-30T22:06:51.419Z,80.82
2022-08-30T22:09:21.975Z,80.96
2022-08-30T22:11:50.996Z,81.26
2022-08-30T22:14:20.302Z,81.12
2022-08-30T22:16:50.092Z,81.39
2022-08-30T22:19:23.122Z,80.83
2022-08-30T22:21:52.147Z,82.03
2022-08-30T22:24:22.397Z,81.74
2022-08-30T22:26:50.356Z,82.55
2022-08-30T22:29:20.115Z,82.17
2022-08-30T22:31:49.402Z,82.72
2022-08-30T22:34:17.992Z,82.62
2022-08-30T22:36:46.021Z,82.85
2022-08-30T22:39:14.238Z,82.74
2022-08-30T22:41:42.985Z,82.11
2022-08-30T22:44:11.911Z,82.62
2022-08-30T22:46:40.473Z,82.70
2022-08-30T22:49:11.300Z,82.18
2022-08-30T22:51:40.250Z,82.26
2022-08-30T22:54:10.704Z,82.95
2022-08-30T22:56:40.229Z,82.57
2022-08-30T22:59:08.916Z,83.21
2022-08-30T23:01:39.651Z,83.08
2022-08-30T23:04:10.070Z,83.11
2022-08-30T23:06:38.104Z,83.56
2022-08-30T23:09:08.080Z,83.92
2022-08-30T23:11:39.574Z,84.18
2022-08-30T23:14:07.912Z,84.25
2022-08-30T23:16:36.431Z,84.58
2022-08-30T23:19:06.266Z,84.78
2022-08-30T23:21:35.771Z,85.00
2022-08-30T23:24:21.940Z,85.69
2022-08-30T23:27:07.347Z,85.20
2022-08-30T23:29:53.865Z,85.78
2022-08-30T23:32:40.399Z,85.48
2022-08-30T23:35:29.881Z,86.13
2022-08-30T23:38:17.158Z,86.52
2022-08-30T23:41:02.875Z,87.15
2022-08-30T23:43:48.226Z,86.98
2022-08-30T23:46:34.293Z,87.58
2022-08-30T23:49:19.910Z,88.00
2022-08-30T23:52:05.559Z,88.89
2022-08-30T23:55:10.996Z,89.43
2022-08-30T23:57:56.016Z,88.41
